Aviation Digital Data Service (ADDS)

Output produced by METARs form (1729 UTC 02 September 2014)
found at http://www.aviationweather.gov/adds/metars/
 
KLNS 021653Z 25006KT 10SM FEW050 SCT060 29/20 A2994 RMK AO2 SLP136 T02890200
KLNS 021333Z 0214/0312 VRB03KT P6SM FEW040 SCT250 
     FM021500 24008G15KT P6SM BKN040 
     TEMPO 0223/0302 2SM +TSRA BR OVC035CB 
     FM030500 28007KT P6SM SCT030